Time;durP1;ratioP1;P1;durP2;ratioP2;P2;SDS_P1;SDS_P2;PMS_P1;PMS_P2;Temp;Humidity;BMP_temperature;BMP_pressure;BME280_temperature;BME280_humidity;BME280_pressure;Samples;Min_cycle;Max_cycle;Signal;HPM_P1;HPM_P2
2023/03/13 00:01:37;;;;;;;1.80;1.70;;;9.50;63.40;;;;;;5094373;28;20036;-73
2023/03/13 00:04:03;;;;;;;1.48;1.48;;;9.40;63.40;;;;;;5093891;28;20107;-72
2023/03/13 00:06:34;;;;;;;1.73;1.63;;;9.40;63.40;;;;;;5075889;28;20051;-72
2023/03/13 00:09:01;;;;;;;1.77;1.67;;;9.40;63.40;;;;;;5094343;28;20530;-72
2023/03/13 00:11:27;;;;;;;1.60;1.60;;;9.40;63.40;;;;;;5076183;28;20025;-72
2023/03/13 00:13:54;;;;;;;1.80;1.70;;;9.40;63.40;;;;;;5094079;28;20035;-72
2023/03/13 00:16:20;;;;;;;1.80;1.70;;;9.40;63.30;;;;;;5075835;28;20466;-72
2023/03/13 00:18:48;;;;;;;1.75;1.65;;;9.40;63.40;;;;;;5075550;28;20034;-72
2023/03/13 00:21:14;;;;;;;1.50;1.50;;;9.40;63.40;;;;;;5075519;28;20028;-72
2023/03/13 00:23:40;;;;;;;1.70;1.60;;;9.40;63.40;;;;;;5093777;28;20040;-72
2023/03/13 00:26:09;;;;;;;1.90;1.80;;;9.40;63.40;;;;;;5075689;28;20080;-72
2023/03/13 00:28:37;;;;;;;1.92;1.83;;;9.40;63.40;;;;;;5093694;28;20358;-72
2023/03/13 00:31:10;;;;;;;1.70;1.70;;;9.40;63.40;;;;;;5075700;28;20028;-72
2023/03/13 00:33:38;;;;;;;1.80;1.70;;;9.40;63.40;;;;;;5096362;28;20048;-72
2023/03/13 00:36:06;;;;;;;1.65;1.55;;;9.40;63.40;;;;;;5098025;28;20039;-72
2023/03/13 00:38:33;;;;;;;1.67;1.63;;;9.40;63.40;;;;;;5079578;28;20024;-72
2023/03/13 00:41:05;;;;;;;1.77;1.67;;;9.40;63.40;;;;;;5079617;28;20469;-71
2023/03/13 00:43:31;;;;;;;1.50;1.50;;;9.40;63.40;;;;;;5079557;28;20035;-72
2023/03/13 00:45:57;;;;;;;1.50;1.50;;;9.40;63.40;;;;;;5097702;28;20028;-71
2023/03/13 00:48:23;;;;;;;1.70;1.60;;;9.30;63.40;;;;;;5097460;28;20389;-71
2023/03/13 00:50:49;;;;;;;1.70;1.63;;;9.30;63.40;;;;;;5097808;28;20024;-71
2023/03/13 00:53:15;;;;;;;1.70;1.60;;;9.30;63.40;;;;;;5079329;28;20510;-71
2023/03/13 00:56:00;;;;;;;1.80;1.70;;;9.30;63.40;;;;;;5097573;28;20055;-72
2023/03/13 00:58:28;;;;;;;1.80;1.70;;;9.30;63.40;;;;;;5097375;28;20063;-72
2023/03/13 01:00:54;;;;;;;1.70;1.60;;;9.30;63.40;;;;;;5063498;28;20035;-72
2023/03/13 01:03:26;;;;;;;1.85;1.75;;;9.30;63.40;;;;;;5097215;28;20028;-72
2023/03/13 01:05:59;;;;;;;1.55;1.55;;;9.30;63.40;;;;;;5097988;28;20024;-72
2023/03/13 01:08:26;;;;;;;1.70;1.60;;;9.30;63.40;;;;;;5097625;28;20055;-72
2023/03/13 01:11:16;;;;;;;1.80;1.70;;;9.30;63.40;;;;;;5097278;28;20021;-73
2023/03/13 01:13:41;;;;;;;1.80;1.70;;;9.30;63.40;;;;;;5097362;28;20028;-71
2023/03/13 01:16:13;;;;;;;1.70;1.60;;;9.30;63.40;;;;;;5097105;28;20020;-72
2023/03/13 01:18:40;;;;;;;1.70;1.60;;;9.30;63.40;;;;;;5078782;28;20119;-72
2023/03/13 01:21:06;;;;;;;1.80;1.70;;;9.30;63.40;;;;;;5096781;28;20119;-72
2023/03/13 01:23:32;;;;;;;1.63;1.52;;;9.30;63.40;;;;;;5096923;28;20030;-72
2023/03/13 01:25:58;;;;;;;1.80;1.70;;;9.20;63.40;;;;;;5078960;28;20527;-72
2023/03/13 01:28:25;;;;;;;1.80;1.70;;;9.20;63.40;;;;;;5097051;28;20066;-72
2023/03/13 01:30:51;;;;;;;1.70;1.60;;;9.20;63.40;;;;;;5097116;28;20477;-72
2023/03/13 01:33:17;;;;;;;1.95;1.85;;;9.20;63.40;;;;;;5096747;28;20089;-72
2023/03/13 01:35:43;;;;;;;1.90;1.80;;;9.20;63.40;;;;;;5096638;28;20025;-71
2023/03/13 01:38:08;;;;;;;1.73;1.63;;;9.20;63.40;;;;;;5096587;28;20070;-72
2023/03/13 01:40:44;;;;;;;1.88;1.77;;;9.20;63.40;;;;;;5096459;28;20055;-72
2023/03/13 01:43:24;;;;;;;1.80;1.70;;;9.20;63.40;;;;;;5078195;28;20039;-72
2023/03/13 01:45:49;;;;;;;1.70;1.60;;;9.20;63.40;;;;;;5096523;28;20029;-72
2023/03/13 01:48:16;;;;;;;1.90;1.80;;;9.20;63.40;;;;;;5096396;28;20035;-72
2023/03/13 01:50:41;;;;;;;1.90;1.80;;;9.20;63.40;;;;;;5096345;28;20047;-72
2023/03/13 01:53:07;;;;;;;1.80;1.70;;;9.20;63.40;;;;;;5078418;28;20059;-72
2023/03/13 01:55:33;;;;;;;1.63;1.60;;;9.20;63.40;;;;;;5096647;28;20102;-72
2023/03/13 01:57:59;;;;;;;1.65;1.55;;;9.20;63.40;;;;;;5096487;28;20044;-73
2023/03/13 02:00:32;;;;;;;1.80;1.70;;;9.10;63.40;;;;;;5096172;28;20032;-72
2023/03/13 02:03:03;;;;;;;1.75;1.65;;;9.10;63.40;;;;;;5078332;28;20020;-72
2023/03/13 02:05:30;;;;;;;1.90;1.80;;;9.10;63.40;;;;;;5077901;28;20028;-71
2023/03/13 02:08:07;;;;;;;1.77;1.67;;;9.10;63.40;;;;;;5078036;28;20476;-72
2023/03/13 02:10:38;;;;;;;1.80;1.70;;;9.10;63.40;;;;;;5096190;28;20521;-71
2023/03/13 02:13:04;;;;;;;1.63;1.60;;;9.10;63.40;;;;;;5077886;28;20028;-72
2023/03/13 02:15:30;;;;;;;1.80;1.70;;;9.10;63.40;;;;;;5077667;28;20050;-72
2023/03/13 02:17:56;;;;;;;1.70;1.65;;;9.10;63.40;;;;;;5078262;28;20028;-71
2023/03/13 02:20:22;;;;;;;1.80;1.70;;;9.10;64.00;;;;;;5096918;28;20032;-71
2023/03/13 02:22:51;;;;;;;1.83;1.73;;;9.10;63.40;;;;;;5096004;28;20032;-72
2023/03/13 02:25:22;;;;;;;1.50;1.50;;;9.10;63.40;;;;;;5096006;28;20099;-71
2023/03/13 02:27:50;;;;;;;1.80;1.70;;;9.10;63.40;;;;;;5095699;28;20038;-71
2023/03/13 02:30:15;;;;;;;1.88;1.77;;;9.10;63.40;;;;;;5095667;28;20059;-71
2023/03/13 02:32:42;;;;;;;1.70;1.60;;;9.10;63.40;;;;;;5095150;28;20052;-71
2023/03/13 02:35:11;;;;;;;1.80;1.70;;;9.00;63.40;;;;;;5077474;28;20029;-72
2023/03/13 02:37:37;;;;;;;1.73;1.63;;;9.10;63.50;;;;;;5077445;28;20036;-71
2023/03/13 02:40:11;;;;;;;1.70;1.60;;;9.00;63.40;;;;;;5077496;28;20024;-73
2023/03/13 02:42:43;;;;;;;2.00;1.90;;;9.00;63.40;;;;;;5095503;28;20024;-73
2023/03/13 02:45:12;;;;;;;1.50;1.50;;;9.00;63.40;;;;;;5077229;28;20025;-73
2023/03/13 02:47:38;;;;;;;1.60;1.60;;;9.00;63.40;;;;;;5095593;28;20035;-72
2023/03/13 02:50:03;;;;;;;1.67;1.58;;;9.00;63.40;;;;;;5095272;28;20032;-72
2023/03/13 02:52:51;;;;;;;1.75;1.65;;;9.00;63.40;;;;;;5077139;28;20083;-74
2023/03/13 02:55:24;;;;;;;1.80;1.70;;;9.00;63.40;;;;;;5093617;28;20044;-72
2023/03/13 02:57:50;;;;;;;1.70;1.60;;;9.00;63.40;;;;;;5095311;28;20115;-72
2023/03/13 03:00:16;;;;;;;1.50;1.50;;;9.00;63.40;;;;;;5076835;28;20111;-72
2023/03/13 03:02:43;;;;;;;1.88;1.77;;;9.00;63.40;;;;;;5095035;28;20412;-72
2023/03/13 03:05:11;;;;;;;1.73;1.63;;;9.00;63.40;;;;;;5076767;28;20035;-73
2023/03/13 03:07:36;;;;;;;1.80;1.70;;;9.00;63.40;;;;;;5094997;28;20031;-72
2023/03/13 03:10:03;;;;;;;1.80;1.70;;;9.00;63.40;;;;;;5094694;28;20350;-72
2023/03/13 03:12:29;;;;;;;1.95;1.85;;;9.00;63.40;;;;;;5076440;28;20032;-72
2023/03/13 03:14:55;;;;;;;1.77;1.70;;;9.00;63.40;;;;;;5095146;28;20024;-72
2023/03/13 03:17:20;;;;;;;1.80;1.70;;;9.00;63.40;;;;;;5094699;28;20032;-72
2023/03/13 03:19:46;;;;;;;1.60;1.50;;;8.90;63.40;;;;;;5094545;28;20085;-73
2023/03/13 03:22:12;;;;;;;1.55;1.48;;;9.00;63.50;;;;;;5094676;28;20028;-73
2023/03/13 03:24:37;;;;;;;1.67;1.60;;;8.90;63.40;;;;;;5094740;28;20028;-72
2023/03/13 03:27:03;;;;;;;1.60;1.60;;;8.90;63.40;;;;;;5094435;28;20032;-72
2023/03/13 03:29:29;;;;;;;1.73;1.63;;;8.90;63.40;;;;;;5094923;28;20020;-72
2023/03/13 03:31:54;;;;;;;1.67;1.58;;;8.90;63.40;;;;;;5094901;28;20511;-73
2023/03/13 03:34:20;;;;;;;1.40;1.40;;;8.90;63.40;;;;;;5093961;28;20059;-73
2023/03/13 03:36:46;;;;;;;1.90;1.80;;;8.90;63.40;;;;;;5115036;28;20067;-72
2023/03/13 03:39:12;;;;;;;1.75;1.65;;;8.90;63.40;;;;;;5114970;28;20067;-72
2023/03/13 03:41:38;;;;;;;1.55;1.55;;;8.90;63.40;;;;;;5114953;28;20035;-72
2023/03/13 03:44:04;;;;;;;1.58;1.52;;;8.90;63.40;;;;;;5114703;28;20058;-71
2023/03/13 03:46:29;;;;;;;1.75;1.65;;;8.90;63.50;;;;;;5114610;28;20077;-72
2023/03/13 03:48:55;;;;;;;1.58;1.50;;;8.90;63.40;;;;;;5096422;28;20024;-72
2023/03/13 03:51:21;;;;;;;1.63;1.52;;;8.90;63.40;;;;;;5114673;28;20038;-73
2023/03/13 03:53:47;;;;;;;1.65;1.58;;;8.90;63.40;;;;;;5114411;28;20034;-71
2023/03/13 03:56:13;;;;;;;1.40;1.40;;;8.80;63.40;;;;;;5114902;28;20034;-71
2023/03/13 03:58:39;;;;;;;1.80;1.70;;;8.80;63.40;;;;;;5114151;28;20054;-71
2023/03/13 04:01:04;;;;;;;1.60;1.60;;;8.80;63.40;;;;;;5096265;28;20036;-72
2023/03/13 04:03:30;;;;;;;1.70;1.60;;;8.80;63.40;;;;;;5096221;28;20499;-72
2023/03/13 04:05:56;;;;;;;1.75;1.65;;;8.80;63.40;;;;;;5114206;28;20062;-71
2023/03/13 04:08:22;;;;;;;1.75;1.70;;;8.80;63.40;;;;;;5095111;28;20118;-71
2023/03/13 04:10:48;;;;;;;1.83;1.73;;;8.80;63.40;;;;;;5114578;28;20024;-71
2023/03/13 04:13:14;;;;;;;1.65;1.55;;;8.80;63.40;;;;;;5079198;28;20485;-71
2023/03/13 04:15:40;;;;;;;1.80;1.70;;;8.80;63.50;;;;;;5114224;28;20054;-71
2023/03/13 04:18:06;;;;;;;1.52;1.52;;;8.80;63.40;;;;;;5114269;28;20046;-72
2023/03/13 04:20:32;;;;;;;1.60;1.60;;;8.80;63.50;;;;;;5114161;28;20453;-72
2023/03/13 04:22:58;;;;;;;1.70;1.70;;;8.80;63.40;;;;;;5114028;28;20377;-72
2023/03/13 04:25:24;;;;;;;1.80;1.70;;;8.80;63.40;;;;;;5095808;28;20027;-72
2023/03/13 04:27:50;;;;;;;1.50;1.50;;;8.80;64.00;;;;;;5114143;28;20035;-72
2023/03/13 04:30:16;;;;;;;1.63;1.58;;;8.80;63.40;;;;;;5095843;28;20023;-73
2023/03/13 04:32:42;;;;;;;1.88;1.77;;;8.80;63.50;;;;;;5109761;28;20043;-72
2023/03/13 04:35:07;;;;;;;1.50;1.50;;;8.80;63.40;;;;;;5093463;28;20384;-72
2023/03/13 04:37:33;;;;;;;1.85;1.75;;;8.80;63.40;;;;;;5093685;28;20039;-72
2023/03/13 04:40:00;;;;;;;1.50;1.50;;;8.80;63.40;;;;;;5093859;28;20028;-73
2023/03/13 04:42:26;;;;;;;1.80;1.70;;;8.80;63.40;;;;;;5094601;28;20031;-72
2023/03/13 04:44:51;;;;;;;1.50;1.50;;;8.80;63.40;;;;;;5093672;28;20020;-73
2023/03/13 04:47:17;;;;;;;1.67;1.60;;;8.80;63.40;;;;;;5075369;28;20027;-72
2023/03/13 04:49:43;;;;;;;1.60;1.50;;;8.80;63.40;;;;;;5093586;28;20099;-73
2023/03/13 04:52:09;;;;;;;1.58;1.58;;;8.90;63.40;;;;;;5075123;28;20024;-71
2023/03/13 04:54:35;;;;;;;1.45;1.40;;;8.90;63.40;;;;;;5075900;28;20032;-72
2023/03/13 04:57:00;;;;;;;1.52;1.52;;;8.90;63.30;;;;;;5093613;28;20523;-72
2023/03/13 04:59:26;;;;;;;1.48;1.48;;;8.90;63.30;;;;;;5093638;28;20407;-71
2023/03/13 05:01:52;;;;;;;1.58;1.55;;;8.90;63.30;;;;;;5093241;28;20124;-73
2023/03/13 05:04:18;;;;;;;1.60;1.50;;;8.90;63.30;;;;;;5093211;28;20073;-72
2023/03/13 05:06:43;;;;;;;1.77;1.67;;;8.90;63.20;;;;;;5075213;28;20032;-72
2023/03/13 05:09:09;;;;;;;1.85;1.75;;;8.90;63.20;;;;;;5075319;28;20077;-72
2023/03/13 05:11:35;;;;;;;1.90;1.80;;;8.90;63.20;;;;;;5075035;28;20028;-72
2023/03/13 05:14:00;;;;;;;1.73;1.70;;;9.00;63.20;;;;;;5093348;28;20080;-72
2023/03/13 05:16:26;;;;;;;1.98;1.88;;;9.00;63.20;;;;;;5093136;28;20024;-72
2023/03/13 05:18:52;;;;;;;1.80;1.70;;;9.00;63.80;;;;;;5094542;28;20377;-72
2023/03/13 05:21:17;;;;;;;1.70;1.60;;;9.00;63.10;;;;;;5097480;28;20027;-73
2023/03/13 05:23:43;;;;;;;1.67;1.58;;;9.00;63.10;;;;;;5079172;28;20027;-72
2023/03/13 05:26:09;;;;;;;1.58;1.50;;;9.00;63.00;;;;;;5097048;28;20028;-72
2023/03/13 05:28:34;;;;;;;1.60;1.50;;;9.00;63.00;;;;;;5097102;28;20024;-73
2023/03/13 05:31:00;;;;;;;1.70;1.60;;;9.00;63.00;;;;;;5097037;28;20055;-73
2023/03/13 05:33:25;;;;;;;1.83;1.73;;;9.10;63.00;;;;;;5096483;28;20105;-73
2023/03/13 05:35:51;;;;;;;1.75;1.65;;;9.10;63.00;;;;;;5096387;28;20028;-73
2023/03/13 05:38:17;;;;;;;1.60;1.60;;;9.10;62.90;;;;;;5096070;28;20065;-72
2023/03/13 05:40:43;;;;;;;1.80;1.70;;;9.10;62.90;;;;;;5078301;28;20024;-72
2023/03/13 05:43:08;;;;;;;1.75;1.65;;;9.20;62.90;;;;;;5078553;28;20057;-72
2023/03/13 05:45:34;;;;;;;1.60;1.50;;;9.20;62.90;;;;;;5096336;28;20107;-73
2023/03/13 05:47:59;;;;;;;1.40;1.40;;;9.20;62.80;;;;;;5096048;28;20073;-76
2023/03/13 05:50:25;;;;;;;1.90;1.80;;;9.20;62.80;;;;;;5087822;28;20036;-72
2023/03/13 05:52:51;;;;;;;1.60;1.60;;;9.20;62.80;;;;;;5096946;28;20060;-73
2023/03/13 05:55:18;;;;;;;1.63;1.52;;;9.30;62.80;;;;;;5096234;28;20060;-72
2023/03/13 05:57:47;;;;;;;1.60;1.50;;;9.30;62.80;;;;;;5078095;28;20024;-73
2023/03/13 06:00:14;;;;;;;1.63;1.52;;;9.30;62.70;;;;;;5078070;28;20423;-73
2023/03/13 06:02:41;;;;;;;1.60;1.60;;;9.40;62.70;;;;;;5095845;28;20028;-72
2023/03/13 06:05:07;;;;;;;1.60;1.50;;;9.40;62.60;;;;;;5096201;28;20021;-71
2023/03/13 06:07:32;;;;;;;1.50;1.50;;;9.40;62.50;;;;;;5077213;28;20039;-74
2023/03/13 06:09:58;;;;;;;1.63;1.52;;;9.40;62.50;;;;;;5074101;28;20036;-72
2023/03/13 06:12:24;;;;;;;1.55;1.45;;;9.50;62.50;;;;;;5074684;28;20024;-72
2023/03/13 06:14:49;;;;;;;1.70;1.60;;;9.50;62.40;;;;;;5074404;28;20017;-71
2023/03/13 06:17:15;;;;;;;1.70;1.60;;;9.50;62.30;;;;;;5056689;28;20052;-74
2023/03/13 06:19:41;;;;;;;1.75;1.65;;;9.60;62.30;;;;;;5074464;28;20052;-72
2023/03/13 06:22:06;;;;;;;1.40;1.40;;;9.60;62.20;;;;;;5084120;28;20040;-71
2023/03/13 06:24:32;;;;;;;1.77;1.67;;;9.70;62.20;;;;;;5067038;28;20035;-73
2023/03/13 06:26:58;;;;;;;1.50;1.50;;;9.70;62.10;;;;;;5056616;28;20032;-73
2023/03/13 06:29:23;;;;;;;1.60;1.50;;;9.70;62.00;;;;;;5055918;28;20103;-72
2023/03/13 06:31:50;;;;;;;1.50;1.40;;;9.80;62.00;;;;;;5073449;28;20466;-74
2023/03/13 06:34:16;;;;;;;1.40;1.40;;;9.80;62.00;;;;;;5073902;28;20052;-71
2023/03/13 06:36:42;;;;;;;1.60;1.50;;;9.80;62.50;;;;;;5074066;28;20029;-72
2023/03/13 06:39:08;;;;;;;1.50;1.50;;;9.80;61.90;;;;;;5073715;28;20071;-70
2023/03/13 06:41:34;;;;;;;1.52;1.50;;;9.90;61.90;;;;;;5056349;28;20119;-75
2023/03/13 06:44:00;;;;;;;1.48;1.45;;;9.90;61.90;;;;;;5074319;28;20170;-73
2023/03/13 06:46:26;;;;;;;1.60;1.50;;;9.90;61.80;;;;;;5073643;28;20021;-72
2023/03/13 06:48:52;;;;;;;1.50;1.50;;;9.90;61.80;;;;;;5074241;28;20032;-72
2023/03/13 06:51:20;;;;;;;1.45;1.45;;;9.90;61.80;;;;;;5056351;28;20063;-74
2023/03/13 06:53:46;;;;;;;1.75;1.65;;;10.00;61.90;;;;;;5055782;28;20025;-72
2023/03/13 06:56:12;;;;;;;1.65;1.55;;;10.00;61.80;;;;;;5056013;28;20028;-75
2023/03/13 06:58:37;;;;;;;1.83;1.73;;;10.00;61.80;;;;;;5056297;28;20081;-71
2023/03/13 07:01:12;;;;;;;1.65;1.55;;;10.00;61.70;;;;;;5074291;28;20085;-71
2023/03/13 07:03:40;;;;;;;1.55;1.55;;;10.00;61.70;;;;;;5074790;28;20029;-72
2023/03/13 07:06:06;;;;;;;1.50;1.50;;;10.00;61.60;;;;;;5057457;28;20024;-71
2023/03/13 07:08:32;;;;;;;1.60;1.60;;;10.00;61.70;;;;;;5074221;28;20029;-71
2023/03/13 07:11:01;;;;;;;1.63;1.52;;;10.00;61.70;;;;;;5074812;28;20036;-71
2023/03/13 07:13:26;;;;;;;1.58;1.50;;;10.00;61.70;;;;;;5056347;28;20036;-70
2023/03/13 07:15:52;;;;;;;1.63;1.52;;;10.00;61.80;;;;;;5056507;28;20047;-71
2023/03/13 07:18:18;;;;;;;1.73;1.63;;;10.00;61.90;;;;;;5056429;28;20024;-70
2023/03/13 07:20:44;;;;;;;1.45;1.45;;;10.00;61.90;;;;;;5056616;28;20145;-71
2023/03/13 07:23:10;;;;;;;1.45;1.45;;;10.00;61.90;;;;;;5074238;28;20539;-71
2023/03/13 07:25:35;;;;;;;1.48;1.45;;;10.00;61.80;;;;;;5074669;28;20055;-70
2023/03/13 07:28:01;;;;;;;1.40;1.40;;;10.00;61.80;;;;;;5056119;28;20033;-71
2023/03/13 07:30:27;;;;;;;1.40;1.40;;;10.00;61.80;;;;;;5056344;28;20074;-70
2023/03/13 07:32:53;;;;;;;1.48;1.45;;;10.00;61.80;;;;;;5079858;28;20375;-70
2023/03/13 07:35:18;;;;;;;1.50;1.40;;;10.00;61.80;;;;;;5094406;28;20032;-71
2023/03/13 07:37:44;;;;;;;1.60;1.50;;;10.00;61.80;;;;;;5094226;28;20458;-70
2023/03/13 07:40:11;;;;;;;1.45;1.40;;;10.00;61.70;;;;;;5075953;28;20024;-71
2023/03/13 07:42:40;;;;;;;1.40;1.40;;;10.00;61.70;;;;;;5093822;28;20453;-70
2023/03/13 07:45:07;;;;;;;1.45;1.45;;;10.00;61.80;;;;;;5060108;28;20084;-70
2023/03/13 07:47:36;;;;;;;1.45;1.45;;;10.00;61.70;;;;;;5094148;28;20036;-71
2023/03/13 07:50:01;;;;;;;1.80;1.70;;;10.00;61.70;;;;;;5093926;28;20397;-70
2023/03/13 07:52:27;;;;;;;1.50;1.50;;;10.00;62.30;;;;;;5094156;28;20024;-70
2023/03/13 07:54:53;;;;;;;1.50;1.50;;;10.00;61.70;;;;;;5076027;28;20366;-69
2023/03/13 07:57:19;;;;;;;1.60;1.50;;;10.00;61.70;;;;;;5093784;28;20036;-71
2023/03/13 07:59:45;;;;;;;1.40;1.35;;;10.00;61.70;;;;;;5094326;28;20035;-71
2023/03/13 08:02:15;;;;;;;1.52;1.42;;;10.00;61.70;;;;;;5094051;28;20439;-71
2023/03/13 08:04:41;;;;;;;1.48;1.48;;;10.00;61.70;;;;;;5094079;28;20457;-70
2023/03/13 08:07:08;;;;;;;1.77;1.67;;;10.00;61.60;;;;;;5093829;28;20035;-71
2023/03/13 08:09:34;;;;;;;1.60;1.50;;;10.00;61.60;;;;;;5076165;28;20051;-71
2023/03/13 08:11:59;;;;;;;1.58;1.55;;;10.10;61.60;;;;;;5093582;28;20062;-71
2023/03/13 08:14:25;;;;;;;1.40;1.40;;;10.10;61.60;;;;;;5094359;28;20466;-71
2023/03/13 08:16:50;;;;;;;1.52;1.42;;;10.10;61.60;;;;;;5094114;28;20032;-71
2023/03/13 08:19:16;;;;;;;1.60;1.50;;;10.10;61.60;;;;;;5075694;28;20034;-72
2023/03/13 08:21:42;;;;;;;1.50;1.50;;;10.10;61.60;;;;;;5093764;28;20058;-71
2023/03/13 08:24:10;;;;;;;1.50;1.50;;;10.10;61.50;;;;;;5093844;28;20355;-71
2023/03/13 08:26:37;;;;;;;1.48;1.48;;;10.10;61.60;;;;;;5075674;28;20027;-71
2023/03/13 08:29:06;;;;;;;1.45;1.40;;;10.10;61.50;;;;;;5094025;28;20032;-70
2023/03/13 08:31:35;;;;;;;1.70;1.60;;;10.10;61.50;;;;;;5075334;28;20024;-72
2023/03/13 08:34:01;;;;;;;1.60;1.50;;;10.10;61.50;;;;;;5075102;28;20412;-72
2023/03/13 08:36:30;;;;;;;1.40;1.40;;;10.10;61.50;;;;;;5075690;28;20032;-72
2023/03/13 08:38:59;;;;;;;1.70;1.60;;;10.10;61.50;;;;;;5093419;28;20051;-71
2023/03/13 08:41:30;;;;;;;1.65;1.55;;;10.10;61.50;;;;;;5093986;28;20028;-70
2023/03/13 08:43:56;;;;;;;1.52;1.42;;;10.10;61.50;;;;;;5075933;28;20077;-70
2023/03/13 08:46:23;;;;;;;1.40;1.40;;;10.10;61.50;;;;;;5093899;28;20028;-71
2023/03/13 08:48:53;;;;;;;1.48;1.38;;;10.10;61.50;;;;;;5075462;28;20024;-72
2023/03/13 08:51:21;;;;;;;1.55;1.55;;;10.10;61.50;;;;;;5075220;28;20111;-72
2023/03/13 08:53:47;;;;;;;1.42;1.42;;;10.10;61.50;;;;;;5094697;28;20048;-71
2023/03/13 08:56:15;;;;;;;1.38;1.38;;;10.10;61.40;;;;;;5097765;28;20032;-71
2023/03/13 08:58:41;;;;;;;1.60;1.50;;;10.10;61.50;;;;;;5097292;28;20036;-71
2023/03/13 09:01:09;;;;;;;1.55;1.50;;;10.10;61.40;;;;;;5079674;28;20028;-71
2023/03/13 09:03:35;;;;;;;1.33;1.33;;;10.20;61.50;;;;;;5097209;28;20089;-71
2023/03/13 09:06:02;;;;;;;1.42;1.42;;;10.10;61.40;;;;;;5096998;28;20082;-71
2023/03/13 09:08:29;;;;;;;1.48;1.40;;;10.20;61.50;;;;;;5079072;28;20071;-71
2023/03/13 09:11:06;;;;;;;1.35;1.35;;;10.10;61.40;;;;;;5097123;28;20024;-70
2023/03/13 09:13:34;;;;;;;1.83;1.73;;;10.20;61.40;;;;;;5097203;28;20082;-71
2023/03/13 09:16:03;;;;;;;1.45;1.40;;;10.20;61.40;;;;;;5078879;28;20035;-72
2023/03/13 09:18:28;;;;;;;1.40;1.30;;;10.20;61.40;;;;;;5096628;28;20035;-72
2023/03/13 09:20:54;;;;;;;1.30;1.30;;;10.20;61.40;;;;;;5078875;28;20032;-71
2023/03/13 09:23:21;;;;;;;1.35;1.35;;;10.20;61.40;;;;;;5097254;28;20029;-71
2023/03/13 09:25:48;;;;;;;1.48;1.45;;;10.20;61.40;;;;;;5097132;28;20031;-71
2023/03/13 09:28:13;;;;;;;1.30;1.30;;;10.20;61.40;;;;;;5097071;28;20036;-71
2023/03/13 09:30:39;;;;;;;1.65;1.55;;;10.20;61.40;;;;;;5097112;28;20036;-71
2023/03/13 09:33:05;;;;;;;1.35;1.35;;;10.20;61.40;;;;;;5096555;28;20119;-71
2023/03/13 09:35:30;;;;;;;1.30;1.30;;;10.30;61.40;;;;;;5096693;28;20032;-71
2023/03/13 09:37:56;;;;;;;1.45;1.45;;;10.20;61.30;;;;;;5096643;28;20028;-71
2023/03/13 09:40:24;;;;;;;1.48;1.48;;;10.30;61.40;;;;;;5096468;28;20093;-71
2023/03/13 09:42:58;;;;;;;1.35;1.33;;;10.30;61.30;;;;;;5078398;28;20028;-71
2023/03/13 09:45:35;;;;;;;1.70;1.60;;;10.40;61.30;;;;;;5096274;28;20457;-70
2023/03/13 09:48:23;;;;;;;1.30;1.30;;;10.40;61.30;;;;;;5078231;28;20047;-71
2023/03/13 09:51:01;;;;;;;1.33;1.33;;;10.40;61.80;;;;;;5078632;28;20029;-70
2023/03/13 09:53:37;;;;;;;1.40;1.40;;;10.40;61.20;;;;;;5096178;28;20024;-72
2023/03/13 09:56:05;;;;;;;1.30;1.30;;;10.50;61.30;;;;;;5095366;28;20341;-71
2023/03/13 09:58:33;;;;;;;1.40;1.40;;;10.50;61.20;;;;;;5077738;28;20067;-71
2023/03/13 10:01:05;;;;;;;1.40;1.33;;;10.50;61.20;;;;;;5077934;28;20027;-72
2023/03/13 10:03:34;;;;;;;1.80;1.70;;;10.60;61.20;;;;;;5096098;28;20028;-71
2023/03/13 10:06:18;;;;;;;1.40;1.40;;;10.60;61.10;;;;;;5095896;28;20461;-71
2023/03/13 10:08:44;;;;;;;1.40;1.40;;;10.60;61.10;;;;;;5096248;28;20363;-71
2023/03/13 10:11:11;;;;;;;1.67;1.58;;;10.60;61.10;;;;;;5095993;28;20039;-71
2023/03/13 10:13:45;;;;;;;1.42;1.42;;;10.60;61.00;;;;;;5077936;28;20027;-71
2023/03/13 10:16:17;;;;;;;1.48;1.40;;;10.60;61.00;;;;;;5077860;28;20028;-71
2023/03/13 10:18:51;;;;;;;1.40;1.30;;;10.70;61.10;;;;;;5095783;28;20023;-71
2023/03/13 10:21:18;;;;;;;;;;;10.70;61.00;;;;;;5096304;28;20032;-71
2023/03/13 10:23:56;;;;;;;1.20;1.20;;;10.70;60.70;;;;;;5095887;28;19927;-71
2023/03/13 10:26:26;;;;;;;1.30;1.30;;;10.70;60.90;;;;;;5077520;28;20029;-71
2023/03/13 10:28:53;;;;;;;1.45;1.45;;;10.70;60.90;;;;;;5077784;28;20085;-71
2023/03/13 10:31:31;;;;;;;1.40;1.40;;;10.70;60.90;;;;;;5077213;28;20032;-72
2023/03/13 10:34:08;;;;;;;1.50;1.40;;;10.70;61.40;;;;;;5077444;28;20050;-71
2023/03/13 10:36:42;;;;;;;1.30;1.30;;;10.70;60.80;;;;;;5077309;28;20138;-71
2023/03/13 10:39:14;;;;;;;1.58;1.48;;;10.70;60.80;;;;;;5095574;28;20116;-70
2023/03/13 10:41:40;;;;;;;1.38;1.38;;;10.70;60.80;;;;;;5078449;28;20436;-71
2023/03/13 10:44:15;;;;;;;1.30;1.30;;;10.70;60.80;;;;;;5095380;28;20103;-72
2023/03/13 10:46:44;;;;;;;1.35;1.35;;;10.70;60.80;;;;;;5077825;28;20028;-72
2023/03/13 10:49:21;;;;;;;1.58;1.48;;;10.80;60.90;;;;;;5077095;28;20118;-71
2023/03/13 10:51:55;;;;;;;1.50;1.40;;;10.70;60.80;;;;;;5095733;28;20408;-71
2023/03/13 10:54:23;;;;;;;1.45;1.40;;;10.80;60.90;;;;;;5077154;28;20377;-70
2023/03/13 10:56:50;;;;;;;1.40;1.40;;;10.80;60.90;;;;;;5095070;28;20043;-70
2023/03/13 10:59:26;;;;;;;1.63;1.52;;;10.70;60.80;;;;;;5076872;28;20032;-71
2023/03/13 11:02:00;;;;;;;1.65;1.58;;;10.80;60.90;;;;;;5094959;28;20020;-71
2023/03/13 11:04:30;;;;;;;1.50;1.40;;;10.80;60.80;;;;;;5076740;28;20465;-71
2023/03/13 11:07:36;;;;;;;1.40;1.40;;;10.80;60.80;;;;;;5076340;28;20269;-71
2023/03/13 11:10:23;;;;;;;1.40;1.40;;;10.80;60.70;;;;;;4976801;28;20030;-71
2023/03/13 11:12:52;;;;;;;1.50;1.40;;;10.80;60.70;;;;;;4993032;28;20137;-71
2023/03/13 11:15:29;;;;;;;1.27;1.27;;;10.80;60.80;;;;;;5058337;28;20032;-71
2023/03/13 11:18:04;;;;;;;1.40;1.30;;;10.80;60.70;;;;;;5093985;28;20035;-71
2023/03/13 11:20:34;;;;;;;1.67;1.60;;;10.80;60.70;;;;;;5094479;28;20373;-72
2023/03/13 11:23:17;;;;;;;1.48;1.38;;;10.80;60.80;;;;;;5076274;28;20029;-72
2023/03/13 11:25:52;;;;;;;1.30;1.30;;;10.90;60.80;;;;;;5076070;28;20492;-71
2023/03/13 11:28:26;;;;;;;1.30;1.23;;;10.90;60.70;;;;;;5076601;28;20035;-71
2023/03/13 11:31:04;;;;;;;1.92;1.83;;;10.90;60.70;;;;;;5076624;28;20024;-71
2023/03/13 11:33:39;;;;;;;1.33;1.33;;;10.90;60.70;;;;;;5094464;28;20470;-71
2023/03/13 11:36:29;;;;;;;1.58;1.48;;;10.90;60.70;;;;;;5076049;28;20048;-72
2023/03/13 11:39:19;;;;;;;1.30;1.30;;;10.90;60.70;;;;;;5076410;28;20458;-70
2023/03/13 11:42:22;;;;;;;1.30;1.30;;;10.90;60.60;;;;;;5094353;28;20070;-70
2023/03/13 11:45:15;;;;;;;1.35;1.35;;;11.00;60.60;;;;;;5075838;28;20055;-71
2023/03/13 11:47:59;;;;;;;1.23;1.23;;;11.00;60.50;;;;;;5093919;28;20032;-71
2023/03/13 11:50:45;;;;;;;1.30;1.30;;;10.90;60.50;;;;;;5094261;28;20042;-71
2023/03/13 11:53:43;;;;;;;1.35;1.35;;;11.00;60.50;;;;;;5094429;28;20028;-71
2023/03/13 11:56:27;;;;;;;1.40;1.40;;;11.00;60.50;;;;;;5094049;28;20063;-71
2023/03/13 11:58:59;;;;;;;1.60;1.50;;;11.10;60.50;;;;;;5093772;28;20385;-71
2023/03/13 12:01:28;;;;;;;1.52;1.45;;;11.00;60.50;;;;;;5093794;28;20020;-70
2023/03/13 12:04:19;;;;;;;1.33;1.30;;;11.10;60.60;;;;;;5093927;28;20016;-71
2023/03/13 12:06:57;;;;;;;1.20;1.20;;;11.10;60.50;;;;;;5075910;28;20077;-71
2023/03/13 12:09:27;;;;;;;1.58;1.50;;;11.10;60.40;;;;;;5093643;28;20457;-71
2023/03/13 12:12:10;;;;;;;1.60;1.50;;;11.10;60.50;;;;;;5094218;28;20028;-71
2023/03/13 12:14:58;;;;;;;1.30;1.30;;;11.20;60.60;;;;;;5075990;28;20043;-71
2023/03/13 12:17:27;;;;;;;1.20;1.20;;;11.10;60.30;;;;;;5075731;28;20070;-72
2023/03/13 12:20:01;;;;;;;1.30;1.30;;;11.20;60.40;;;;;;5093696;28;20099;-69
2023/03/13 12:23:03;;;;;;;1.35;1.35;;;11.20;60.40;;;;;;5093568;28;20462;-71
2023/03/13 12:26:09;;;;;;;1.25;1.25;;;11.20;61.00;;;;;;5020954;28;20032;-71
2023/03/13 12:29:05;;;;;;;1.23;1.17;;;11.20;60.30;;;;;;5094757;28;20088;-70
2023/03/13 12:31:47;;;;;;;1.17;1.17;;;11.30;60.30;;;;;;5079709;28;20035;-70
2023/03/13 12:34:29;;;;;;;1.40;1.40;;;11.20;60.30;;;;;;5062665;28;20052;-71
2023/03/13 12:37:08;;;;;;;1.33;1.33;;;11.20;60.20;;;;;;5059502;28;20044;-70
2023/03/13 12:39:48;;;;;;;1.30;1.30;;;11.30;60.30;;;;;;5077959;28;20037;-71
2023/03/13 12:42:20;;;;;;;1.20;1.20;;;11.30;60.30;;;;;;5059412;28;20032;-70
2023/03/13 12:44:46;;;;;;;1.40;1.30;;;11.30;60.20;;;;;;5077067;28;20467;-72
2023/03/13 12:47:31;;;;;;;1.27;1.27;;;11.30;60.20;;;;;;5077537;28;20027;-72
2023/03/13 12:50:05;;;;;;;1.30;1.30;;;11.40;60.20;;;;;;5077221;28;20060;-71
2023/03/13 12:52:37;;;;;;;1.38;1.38;;;11.40;60.20;;;;;;5059319;28;20127;-70
2023/03/13 12:55:38;;;;;;;1.45;1.38;;;11.40;60.20;;;;;;5076866;28;20100;-71
2023/03/13 12:58:29;;;;;;;1.20;1.20;;;11.40;60.20;;;;;;4988019;28;20408;-70
2023/03/13 13:01:00;;;;;;;1.20;1.20;;;11.50;60.00;;;;;;5077068;28;20480;-70
2023/03/13 13:03:30;;;;;;;1.25;1.25;;;11.50;60.10;;;;;;5076975;28;20194;-70
2023/03/13 13:05:59;;;;;;;1.40;1.30;;;11.60;60.10;;;;;;5077193;28;20024;-71